sensor_id;sensor_type;location;lat;lon;timestamp;P1;durP1;ratioP1;P2;durP2;ratioP2
64868;SDS011;51349;52.424;10.840;2023-09-12T00:01:04;7.75;;;6.43;;
64868;SDS011;51349;52.424;10.840;2023-09-12T00:06:06;6.53;;;5.93;;
64868;SDS011;51349;52.424;10.840;2023-09-12T00:11:07;7.00;;;6.30;;
64868;SDS011;51349;52.424;10.840;2023-09-12T00:16:12;7.65;;;6.10;;
64868;SDS011;51349;52.424;10.840;2023-09-12T00:21:12;7.03;;;5.70;;
64868;SDS011;51349;52.424;10.840;2023-09-12T00:26:13;7.15;;;5.70;;
64868;SDS011;51349;52.424;10.840;2023-09-12T00:31:14;6.72;;;5.97;;
64868;SDS011;51349;52.424;10.840;2023-09-12T00:36:14;7.15;;;6.22;;
64868;SDS011;51349;52.424;10.840;2023-09-12T00:41:15;6.32;;;5.75;;
64868;SDS011;51349;52.424;10.840;2023-09-12T00:46:18;9.65;;;5.93;;
64868;SDS011;51349;52.424;10.840;2023-09-12T00:51:21;6.38;;;5.88;;
64868;SDS011;51349;52.424;10.840;2023-09-12T00:56:24;8.70;;;5.75;;
64868;SDS011;51349;52.424;10.840;2023-09-12T01:01:26;6.22;;;5.72;;
64868;SDS011;51349;52.424;10.840;2023-09-12T01:06:27;7.35;;;5.72;;
64868;SDS011;51349;52.424;10.840;2023-09-12T01:11:29;7.93;;;6.10;;
64868;SDS011;51349;52.424;10.840;2023-09-12T01:16:31;6.63;;;6.03;;
64868;SDS011;51349;52.424;10.840;2023-09-12T01:32:04;5.97;;;5.47;;
64868;SDS011;51349;52.424;10.840;2023-09-12T01:37:05;6.60;;;6.00;;
64868;SDS011;51349;52.424;10.840;2023-09-12T01:42:06;6.70;;;5.80;;
64868;SDS011;51349;52.424;10.840;2023-09-12T01:47:10;8.13;;;6.28;;
64868;SDS011;51349;52.424;10.840;2023-09-12T01:52:12;7.60;;;6.63;;
64868;SDS011;51349;52.424;10.840;2023-09-12T01:57:14;7.57;;;6.88;;
64868;SDS011;51349;52.424;10.840;2023-09-12T02:02:18;8.30;;;6.75;;
64868;SDS011;51349;52.424;10.840;2023-09-12T02:07:18;8.00;;;6.78;;
64868;SDS011;51349;52.424;10.840;2023-09-12T02:12:20;7.10;;;6.43;;
64868;SDS011;51349;52.424;10.840;2023-09-12T02:17:21;7.95;;;7.20;;
64868;SDS011;51349;52.424;10.840;2023-09-12T02:22:21;8.52;;;7.55;;
64868;SDS011;51349;52.424;10.840;2023-09-12T02:27:22;8.50;;;7.60;;
64868;SDS011;51349;52.424;10.840;2023-09-12T02:32:23;8.75;;;7.43;;
64868;SDS011;51349;52.424;10.840;2023-09-12T02:37:23;9.00;;;8.10;;
64868;SDS011;51349;52.424;10.840;2023-09-12T02:42:24;9.07;;;8.25;;
64868;SDS011;51349;52.424;10.840;2023-09-12T02:47:26;10.00;;;8.40;;
64868;SDS011;51349;52.424;10.840;2023-09-12T02:52:26;8.98;;;8.05;;
64868;SDS011;51349;52.424;10.840;2023-09-12T02:57:27;9.63;;;8.73;;
64868;SDS011;51349;52.424;10.840;2023-09-12T03:02:28;8.25;;;7.45;;
64868;SDS011;51349;52.424;10.840;2023-09-12T03:07:29;10.85;;;8.23;;
64868;SDS011;51349;52.424;10.840;2023-09-12T03:12:30;8.73;;;7.82;;
64868;SDS011;51349;52.424;10.840;2023-09-12T03:17:31;9.40;;;7.85;;
64868;SDS011;51349;52.424;10.840;2023-09-12T03:22:32;7.70;;;6.90;;
64868;SDS011;51349;52.424;10.840;2023-09-12T03:27:37;11.65;;;7.30;;
64868;SDS011;51349;52.424;10.840;2023-09-12T03:32:38;9.88;;;8.20;;
64868;SDS011;51349;52.424;10.840;2023-09-12T03:37:38;11.85;;;8.60;;
64868;SDS011;51349;52.424;10.840;2023-09-12T03:42:42;10.48;;;8.10;;
64868;SDS011;51349;52.424;10.840;2023-09-12T03:47:43;9.18;;;8.13;;
64868;SDS011;51349;52.424;10.840;2023-09-12T03:52:46;9.23;;;8.32;;
64868;SDS011;51349;52.424;10.840;2023-09-12T03:57:47;8.77;;;7.97;;
64868;SDS011;51349;52.424;10.840;2023-09-12T04:02:47;9.93;;;8.90;;
64868;SDS011;51349;52.424;10.840;2023-09-12T04:07:48;10.20;;;8.57;;
64868;SDS011;51349;52.424;10.840;2023-09-12T04:12:49;8.55;;;7.65;;
64868;SDS011;51349;52.424;10.840;2023-09-12T04:17:49;8.77;;;7.88;;
64868;SDS011;51349;52.424;10.840;2023-09-12T04:22:50;8.93;;;8.02;;
64868;SDS011;51349;52.424;10.840;2023-09-12T04:27:51;10.55;;;9.05;;
64868;SDS011;51349;52.424;10.840;2023-09-12T04:32:52;10.68;;;9.35;;
64868;SDS011;51349;52.424;10.840;2023-09-12T04:37:52;11.32;;;10.05;;
64868;SDS011;51349;52.424;10.840;2023-09-12T04:42:53;11.20;;;9.32;;
64868;SDS011;51349;52.424;10.840;2023-09-12T04:47:54;9.98;;;9.00;;
64868;SDS011;51349;52.424;10.840;2023-09-12T04:52:54;9.95;;;8.95;;
64868;SDS011;51349;52.424;10.840;2023-09-12T04:57:55;10.85;;;9.52;;
64868;SDS011;51349;52.424;10.840;2023-09-12T05:02:56;12.68;;;9.75;;
64868;SDS011;51349;52.424;10.840;2023-09-12T05:07:56;10.82;;;9.73;;
64868;SDS011;51349;52.424;10.840;2023-09-12T05:12:57;11.15;;;9.95;;
64868;SDS011;51349;52.424;10.840;2023-09-12T05:17:57;10.50;;;9.00;;
64868;SDS011;51349;52.424;10.840;2023-09-12T05:22:58;8.52;;;7.72;;
64868;SDS011;51349;52.424;10.840;2023-09-12T05:27:59;10.07;;;9.07;;
64868;SDS011;51349;52.424;10.840;2023-09-12T05:33:00;9.43;;;8.40;;
64868;SDS011;51349;52.424;10.840;2023-09-12T05:38:01;9.60;;;8.63;;
64868;SDS011;51349;52.424;10.840;2023-09-12T05:43:02;10.00;;;8.30;;
64868;SDS011;51349;52.424;10.840;2023-09-12T05:48:03;9.20;;;8.30;;
64868;SDS011;51349;52.424;10.840;2023-09-12T05:53:04;9.82;;;8.82;;
64868;SDS011;51349;52.424;10.840;2023-09-12T05:58:05;10.38;;;8.48;;
64868;SDS011;51349;52.424;10.840;2023-09-12T06:03:06;8.27;;;7.47;;
64868;SDS011;51349;52.424;10.840;2023-09-12T06:08:07;8.70;;;7.78;;
64868;SDS011;51349;52.424;10.840;2023-09-12T06:13:07;8.20;;;7.40;;
64868;SDS011;51349;52.424;10.840;2023-09-12T06:18:08;7.00;;;6.40;;
64868;SDS011;51349;52.424;10.840;2023-09-12T06:23:09;7.38;;;6.68;;
64868;SDS011;51349;52.424;10.840;2023-09-12T06:28:10;7.15;;;6.43;;
64868;SDS011;51349;52.424;10.840;2023-09-12T06:33:11;7.28;;;6.05;;
64868;SDS011;51349;52.424;10.840;2023-09-12T06:38:12;6.65;;;5.95;;
64868;SDS011;51349;52.424;10.840;2023-09-12T06:43:13;7.78;;;6.25;;
64868;SDS011;51349;52.424;10.840;2023-09-12T06:48:14;6.05;;;5.55;;
64868;SDS011;51349;52.424;10.840;2023-09-12T06:53:16;6.68;;;6.07;;
64868;SDS011;51349;52.424;10.840;2023-09-12T06:58:17;5.78;;;5.20;;
64868;SDS011;51349;52.424;10.840;2023-09-12T07:03:18;6.57;;;5.93;;
64868;SDS011;51349;52.424;10.840;2023-09-12T07:08:18;6.30;;;5.78;;
64868;SDS011;51349;52.424;10.840;2023-09-12T07:13:19;7.90;;;5.97;;
64868;SDS011;51349;52.424;10.840;2023-09-12T07:18:20;6.70;;;6.00;;
64868;SDS011;51349;52.424;10.840;2023-09-12T07:23:21;6.20;;;5.70;;
64868;SDS011;51349;52.424;10.840;2023-09-12T07:28:23;5.80;;;5.35;;
64868;SDS011;51349;52.424;10.840;2023-09-12T07:33:24;5.97;;;4.85;;
64868;SDS011;51349;52.424;10.840;2023-09-12T07:38:25;4.18;;;3.88;;
64868;SDS011;51349;52.424;10.840;2023-09-12T07:43:26;4.38;;;4.07;;
64868;SDS011;51349;52.424;10.840;2023-09-12T07:48:27;3.85;;;3.47;;
64868;SDS011;51349;52.424;10.840;2023-09-12T07:53:28;4.03;;;3.72;;
64868;SDS011;51349;52.424;10.840;2023-09-12T07:58:28;3.63;;;3.33;;
64868;SDS011;51349;52.424;10.840;2023-09-12T08:03:29;3.92;;;3.53;;
64868;SDS011;51349;52.424;10.840;2023-09-12T08:08:30;4.05;;;3.75;;
64868;SDS011;51349;52.424;10.840;2023-09-12T08:13:31;4.47;;;4.07;;
64868;SDS011;51349;52.424;10.840;2023-09-12T08:18:32;3.92;;;3.63;;
64868;SDS011;51349;52.424;10.840;2023-09-12T08:23:33;3.80;;;3.50;;
64868;SDS011;51349;52.424;10.840;2023-09-12T08:28:34;3.70;;;3.45;;
64868;SDS011;51349;52.424;10.840;2023-09-12T08:33:35;3.80;;;3.50;;
64868;SDS011;51349;52.424;10.840;2023-09-12T08:38:35;3.72;;;3.53;;
64868;SDS011;51349;52.424;10.840;2023-09-12T08:43:36;3.42;;;3.13;;
64868;SDS011;51349;52.424;10.840;2023-09-12T08:48:37;3.42;;;3.20;;
64868;SDS011;51349;52.424;10.840;2023-09-12T08:53:39;2.90;;;2.70;;
64868;SDS011;51349;52.424;10.840;2023-09-12T08:58:40;3.00;;;2.80;;
64868;SDS011;51349;52.424;10.840;2023-09-12T09:03:41;3.33;;;3.10;;
64868;SDS011;51349;52.424;10.840;2023-09-12T09:08:44;3.22;;;2.92;;
64868;SDS011;51349;52.424;10.840;2023-09-12T09:13:45;3.63;;;3.30;;
64868;SDS011;51349;52.424;10.840;2023-09-12T09:23:54;3.53;;;3.10;;
64868;SDS011;51349;52.424;10.840;2023-09-12T09:29:05;2.90;;;2.70;;
64868;SDS011;51349;52.424;10.840;2023-09-12T09:34:15;3.03;;;2.78;;
64868;SDS011;51349;52.424;10.840;2023-09-12T09:39:17;3.15;;;2.90;;
64868;SDS011;51349;52.424;10.840;2023-09-12T09:44:20;2.80;;;2.58;;
64868;SDS011;51349;52.424;10.840;2023-09-12T09:49:22;2.80;;;2.65;;
64868;SDS011;51349;52.424;10.840;2023-09-12T09:54:24;2.95;;;2.72;;
64868;SDS011;51349;52.424;10.840;2023-09-12T09:59:26;3.50;;;3.30;;
64868;SDS011;51349;52.424;10.840;2023-09-12T10:04:28;2.20;;;2.10;;
64868;SDS011;51349;52.424;10.840;2023-09-12T10:09:31;2.63;;;2.42;;
64868;SDS011;51349;52.424;10.840;2023-09-12T10:14:36;2.65;;;2.45;;
64868;SDS011;51349;52.424;10.840;2023-09-12T10:19:43;3.15;;;2.95;;
64868;SDS011;51349;52.424;10.840;2023-09-12T10:24:55;3.00;;;2.80;;
64868;SDS011;51349;52.424;10.840;2023-09-12T10:29:57;2.40;;;2.30;;
64868;SDS011;51349;52.424;10.840;2023-09-12T10:35:00;2.90;;;2.70;;
64868;SDS011;51349;52.424;10.840;2023-09-12T10:40:03;2.40;;;2.30;;
64868;SDS011;51349;52.424;10.840;2023-09-12T10:45:08;2.47;;;2.30;;
64868;SDS011;51349;52.424;10.840;2023-09-12T10:50:09;2.83;;;2.72;;
64868;SDS011;51349;52.424;10.840;2023-09-12T10:55:15;2.90;;;2.70;;
64868;SDS011;51349;52.424;10.840;2023-09-12T11:00:19;3.00;;;2.80;;
64868;SDS011;51349;52.424;10.840;2023-09-12T11:05:50;2.90;;;2.70;;
64868;SDS011;51349;52.424;10.840;2023-09-12T11:16:19;2.90;;;2.70;;
64868;SDS011;51349;52.424;10.840;2023-09-12T11:21:31;2.88;;;2.67;;
64868;SDS011;51349;52.424;10.840;2023-09-12T11:26:32;2.33;;;2.13;;
64868;SDS011;51349;52.424;10.840;2023-09-12T11:31:33;2.38;;;2.28;;
64868;SDS011;51349;52.424;10.840;2023-09-12T11:36:37;2.10;;;2.00;;
64868;SDS011;51349;52.424;10.840;2023-09-12T11:41:41;2.30;;;2.20;;
64868;SDS011;51349;52.424;10.840;2023-09-12T11:46:42;2.33;;;2.20;;
64868;SDS011;51349;52.424;10.840;2023-09-12T11:51:50;2.28;;;2.10;;
64868;SDS011;51349;52.424;10.840;2023-09-12T11:56:51;2.30;;;2.10;;
64868;SDS011;51349;52.424;10.840;2023-09-12T12:01:59;2.70;;;2.50;;
64868;SDS011;51349;52.424;10.840;2023-09-12T12:07:00;2.35;;;2.15;;
64868;SDS011;51349;52.424;10.840;2023-09-12T12:12:19;2.38;;;2.28;;
64868;SDS011;51349;52.424;10.840;2023-09-12T12:17:20;2.22;;;2.05;;
64868;SDS011;51349;52.424;10.840;2023-09-12T12:22:21;2.30;;;2.20;;
64868;SDS011;51349;52.424;10.840;2023-09-12T12:27:22;2.13;;;2.00;;
64868;SDS011;51349;52.424;10.840;2023-09-12T12:32:23;2.42;;;2.22;;
64868;SDS011;51349;52.424;10.840;2023-09-12T12:37:30;2.47;;;2.38;;
64868;SDS011;51349;52.424;10.840;2023-09-12T12:42:35;3.08;;;2.88;;
64868;SDS011;51349;52.424;10.840;2023-09-12T12:47:40;2.95;;;2.75;;
64868;SDS011;51349;52.424;10.840;2023-09-12T12:52:42;3.05;;;2.85;;
64868;SDS011;51349;52.424;10.840;2023-09-12T12:57:43;2.80;;;2.60;;
64868;SDS011;51349;52.424;10.840;2023-09-12T13:02:44;3.10;;;2.80;;
64868;SDS011;51349;52.424;10.840;2023-09-12T13:07:45;2.80;;;2.60;;
64868;SDS011;51349;52.424;10.840;2023-09-12T13:12:46;3.30;;;3.10;;
64868;SDS011;51349;52.424;10.840;2023-09-12T13:17:47;3.25;;;3.05;;
64868;SDS011;51349;52.424;10.840;2023-09-12T13:22:49;3.15;;;2.95;;
64868;SDS011;51349;52.424;10.840;2023-09-12T13:27:49;3.28;;;3.05;;
64868;SDS011;51349;52.424;10.840;2023-09-12T13:32:50;2.83;;;2.65;;
64868;SDS011;51349;52.424;10.840;2023-09-12T13:37:51;3.38;;;3.10;;
64868;SDS011;51349;52.424;10.840;2023-09-12T13:42:51;2.70;;;2.53;;
64868;SDS011;51349;52.424;10.840;2023-09-12T13:47:52;3.55;;;3.25;;
64868;SDS011;51349;52.424;10.840;2023-09-12T13:53:00;2.60;;;2.50;;
64868;SDS011;51349;52.424;10.840;2023-09-12T13:58:06;2.97;;;2.70;;
64868;SDS011;51349;52.424;10.840;2023-09-12T14:03:07;2.97;;;2.78;;
64868;SDS011;51349;52.424;10.840;2023-09-12T14:08:08;2.88;;;2.67;;
64868;SDS011;51349;52.424;10.840;2023-09-12T14:13:08;3.28;;;3.03;;
64868;SDS011;51349;52.424;10.840;2023-09-12T14:18:09;3.63;;;3.22;;
64868;SDS011;51349;52.424;10.840;2023-09-12T14:23:11;3.17;;;2.97;;
64868;SDS011;51349;52.424;10.840;2023-09-12T14:28:15;3.08;;;2.78;;
64868;SDS011;51349;52.424;10.840;2023-09-12T14:33:16;3.30;;;3.10;;
64868;SDS011;51349;52.424;10.840;2023-09-12T14:38:18;2.70;;;2.60;;
64868;SDS011;51349;52.424;10.840;2023-09-12T14:43:19;3.03;;;2.83;;
64868;SDS011;51349;52.424;10.840;2023-09-12T14:48:20;3.08;;;2.78;;
64868;SDS011;51349;52.424;10.840;2023-09-12T14:53:20;2.90;;;2.70;;
64868;SDS011;51349;52.424;10.840;2023-09-12T14:58:22;3.17;;;2.45;;
64868;SDS011;51349;52.424;10.840;2023-09-12T15:03:23;2.72;;;2.60;;
64868;SDS011;51349;52.424;10.840;2023-09-12T15:08:24;2.83;;;2.65;;
64868;SDS011;51349;52.424;10.840;2023-09-12T15:13:25;2.60;;;2.50;;
64868;SDS011;51349;52.424;10.840;2023-09-12T15:18:25;2.40;;;2.30;;
64868;SDS011;51349;52.424;10.840;2023-09-12T15:23:26;2.60;;;2.50;;
64868;SDS011;51349;52.424;10.840;2023-09-12T15:28:28;2.80;;;2.60;;
64868;SDS011;51349;52.424;10.840;2023-09-12T15:33:29;2.50;;;2.40;;
64868;SDS011;51349;52.424;10.840;2023-09-12T15:38:30;2.20;;;2.10;;
64868;SDS011;51349;52.424;10.840;2023-09-12T15:43:30;2.58;;;2.47;;
64868;SDS011;51349;52.424;10.840;2023-09-12T15:48:31;2.10;;;2.00;;
64868;SDS011;51349;52.424;10.840;2023-09-12T15:53:32;2.03;;;1.92;;
64868;SDS011;51349;52.424;10.840;2023-09-12T15:58:32;2.10;;;2.00;;
64868;SDS011;51349;52.424;10.840;2023-09-12T16:03:33;2.13;;;2.00;;
64868;SDS011;51349;52.424;10.840;2023-09-12T16:08:34;2.30;;;2.15;;
64868;SDS011;51349;52.424;10.840;2023-09-12T16:13:35;2.15;;;2.05;;
64868;SDS011;51349;52.424;10.840;2023-09-12T16:18:36;2.15;;;2.03;;
64868;SDS011;51349;52.424;10.840;2023-09-12T16:23:39;2.33;;;2.20;;
64868;SDS011;51349;52.424;10.840;2023-09-12T16:28:40;2.08;;;1.98;;
64868;SDS011;51349;52.424;10.840;2023-09-12T16:33:41;2.10;;;2.00;;
64868;SDS011;51349;52.424;10.840;2023-09-12T16:38:41;2.35;;;2.17;;
64868;SDS011;51349;52.424;10.840;2023-09-12T16:43:42;2.00;;;1.90;;
64868;SDS011;51349;52.424;10.840;2023-09-12T16:48:43;1.92;;;1.83;;
64868;SDS011;51349;52.424;10.840;2023-09-12T16:53:44;1.92;;;1.83;;
64868;SDS011;51349;52.424;10.840;2023-09-12T16:58:44;2.47;;;1.90;;
64868;SDS011;51349;52.424;10.840;2023-09-12T17:03:45;1.95;;;1.85;;
64868;SDS011;51349;52.424;10.840;2023-09-12T17:08:46;2.20;;;2.10;;
64868;SDS011;51349;52.424;10.840;2023-09-12T17:13:47;1.88;;;1.77;;
64868;SDS011;51349;52.424;10.840;2023-09-12T17:18:47;2.10;;;2.00;;
64868;SDS011;51349;52.424;10.840;2023-09-12T17:23:48;2.10;;;2.00;;
64868;SDS011;51349;52.424;10.840;2023-09-12T17:28:50;2.22;;;2.13;;
64868;SDS011;51349;52.424;10.840;2023-09-12T17:33:50;2.17;;;2.08;;
64868;SDS011;51349;52.424;10.840;2023-09-12T17:38:51;2.20;;;2.10;;
64868;SDS011;51349;52.424;10.840;2023-09-12T17:43:52;2.30;;;2.20;;
64868;SDS011;51349;52.424;10.840;2023-09-12T17:48:52;2.42;;;2.33;;
64868;SDS011;51349;52.424;10.840;2023-09-12T17:53:53;2.42;;;2.30;;
64868;SDS011;51349;52.424;10.840;2023-09-12T17:58:54;2.60;;;2.40;;
64868;SDS011;51349;52.424;10.840;2023-09-12T18:03:55;2.53;;;2.40;;
64868;SDS011;51349;52.424;10.840;2023-09-12T18:08:55;2.47;;;2.38;;
64868;SDS011;51349;52.424;10.840;2023-09-12T18:13:56;2.80;;;2.60;;
64868;SDS011;51349;52.424;10.840;2023-09-12T18:18:57;3.15;;;2.85;;
64868;SDS011;51349;52.424;10.840;2023-09-12T18:23:57;3.08;;;2.88;;
64868;SDS011;51349;52.424;10.840;2023-09-12T18:28:58;3.20;;;3.00;;
64868;SDS011;51349;52.424;10.840;2023-09-12T18:34:01;3.10;;;2.90;;
64868;SDS011;51349;52.424;10.840;2023-09-12T18:39:01;3.40;;;3.13;;
64868;SDS011;51349;52.424;10.840;2023-09-12T18:44:06;3.50;;;3.30;;
64868;SDS011;51349;52.424;10.840;2023-09-12T18:49:07;3.20;;;3.00;;
64868;SDS011;51349;52.424;10.840;2023-09-12T18:54:16;3.72;;;3.45;;
64868;SDS011;51349;52.424;10.840;2023-09-12T18:59:20;3.97;;;3.63;;
64868;SDS011;51349;52.424;10.840;2023-09-12T19:04:25;5.40;;;4.93;;
64868;SDS011;51349;52.424;10.840;2023-09-12T19:09:29;4.07;;;3.78;;
64868;SDS011;51349;52.424;10.840;2023-09-12T19:14:30;3.67;;;3.40;;
64868;SDS011;51349;52.424;10.840;2023-09-12T19:19:30;3.22;;;3.03;;
64868;SDS011;51349;52.424;10.840;2023-09-12T19:24:31;3.90;;;3.60;;
64868;SDS011;51349;52.424;10.840;2023-09-12T19:29:51;4.03;;;3.58;;
64868;SDS011;51349;52.424;10.840;2023-09-12T19:34:53;4.10;;;3.80;;
64868;SDS011;51349;52.424;10.840;2023-09-12T19:39:54;4.30;;;3.90;;
64868;SDS011;51349;52.424;10.840;2023-09-12T19:44:54;3.65;;;3.35;;
64868;SDS011;51349;52.424;10.840;2023-09-12T19:49:55;3.88;;;3.58;;
64868;SDS011;51349;52.424;10.840;2023-09-12T19:54:56;4.03;;;3.72;;
64868;SDS011;51349;52.424;10.840;2023-09-12T19:59:56;5.15;;;3.20;;
64868;SDS011;51349;52.424;10.840;2023-09-12T20:04:57;3.85;;;3.55;;
64868;SDS011;51349;52.424;10.840;2023-09-12T20:09:58;4.60;;;4.30;;
64868;SDS011;51349;52.424;10.840;2023-09-12T20:14:58;4.13;;;3.83;;
64868;SDS011;51349;52.424;10.840;2023-09-12T20:19:59;3.90;;;3.60;;
64868;SDS011;51349;52.424;10.840;2023-09-12T20:25:01;5.55;;;3.90;;
64868;SDS011;51349;52.424;10.840;2023-09-12T20:30:02;4.22;;;3.92;;
64868;SDS011;51349;52.424;10.840;2023-09-12T20:35:03;4.10;;;3.80;;
64868;SDS011;51349;52.424;10.840;2023-09-12T20:40:05;4.40;;;4.10;;
64868;SDS011;51349;52.424;10.840;2023-09-12T20:45:07;4.00;;;3.67;;
64868;SDS011;51349;52.424;10.840;2023-09-12T20:50:08;3.90;;;3.60;;
64868;SDS011;51349;52.424;10.840;2023-09-12T20:55:10;4.80;;;4.30;;
64868;SDS011;51349;52.424;10.840;2023-09-12T21:00:11;4.55;;;4.25;;
64868;SDS011;51349;52.424;10.840;2023-09-12T21:05:13;3.80;;;3.50;;
64868;SDS011;51349;52.424;10.840;2023-09-12T21:10:15;4.55;;;4.18;;
64868;SDS011;51349;52.424;10.840;2023-09-12T21:15:16;4.43;;;4.13;;
64868;SDS011;51349;52.424;10.840;2023-09-12T21:20:17;5.70;;;5.20;;
64868;SDS011;51349;52.424;10.840;2023-09-12T21:25:18;6.00;;;5.50;;
64868;SDS011;51349;52.424;10.840;2023-09-12T21:30:18;5.07;;;4.68;;
64868;SDS011;51349;52.424;10.840;2023-09-12T21:35:19;4.20;;;3.90;;
64868;SDS011;51349;52.424;10.840;2023-09-12T21:40:20;4.53;;;4.13;;
64868;SDS011;51349;52.424;10.840;2023-09-12T21:45:21;4.60;;;4.20;;
64868;SDS011;51349;52.424;10.840;2023-09-12T21:50:21;4.88;;;3.90;;
64868;SDS011;51349;52.424;10.840;2023-09-12T21:55:22;4.72;;;4.40;;
64868;SDS011;51349;52.424;10.840;2023-09-12T22:00:23;4.63;;;4.22;;
64868;SDS011;51349;52.424;10.840;2023-09-12T22:05:26;4.65;;;4.30;;
64868;SDS011;51349;52.424;10.840;2023-09-12T22:10:26;4.20;;;3.90;;
64868;SDS011;51349;52.424;10.840;2023-09-12T22:15:27;4.35;;;4.05;;
64868;SDS011;51349;52.424;10.840;2023-09-12T22:20:29;4.68;;;4.35;;
64868;SDS011;51349;52.424;10.840;2023-09-12T22:25:30;5.53;;;5.05;;
64868;SDS011;51349;52.424;10.840;2023-09-12T22:30:31;5.20;;;4.80;;
64868;SDS011;51349;52.424;10.840;2023-09-12T22:35:32;5.28;;;4.78;;
64868;SDS011;51349;52.424;10.840;2023-09-12T22:40:32;5.47;;;5.00;;
64868;SDS011;51349;52.424;10.840;2023-09-12T22:45:33;5.40;;;4.90;;
64868;SDS011;51349;52.424;10.840;2023-09-12T22:50:34;5.10;;;4.65;;
64868;SDS011;51349;52.424;10.840;2023-09-12T22:55:38;5.05;;;4.65;;
64868;SDS011;51349;52.424;10.840;2023-09-12T23:00:40;5.28;;;4.85;;
64868;SDS011;51349;52.424;10.840;2023-09-12T23:05:41;5.40;;;4.78;;
64868;SDS011;51349;52.424;10.840;2023-09-12T23:10:42;5.45;;;4.97;;
64868;SDS011;51349;52.424;10.840;2023-09-12T23:15:43;4.88;;;4.38;;
64868;SDS011;51349;52.424;10.840;2023-09-12T23:20:44;5.35;;;4.90;;
64868;SDS011;51349;52.424;10.840;2023-09-12T23:25:47;5.88;;;5.38;;
64868;SDS011;51349;52.424;10.840;2023-09-12T23:30:48;5.55;;;5.05;;
64868;SDS011;51349;52.424;10.840;2023-09-12T23:35:49;4.85;;;4.40;;
64868;SDS011;51349;52.424;10.840;2023-09-12T23:40:50;5.40;;;4.70;;
64868;SDS011;51349;52.424;10.840;2023-09-12T23:45:50;4.78;;;4.38;;
64868;SDS011;51349;52.424;10.840;2023-09-12T23:50:51;5.03;;;4.63;;
64868;SDS011;51349;52.424;10.840;2023-09-12T23:55:57;4.90;;;4.50;;
